sensor_id;sensor_type;location;lat;lon;timestamp;P1;durP1;ratioP1;P2;durP2;ratioP2
7783;SDS011;19359;51.402;6.778;2024-02-26T00:01:28;0.60;;;0.57;;
7783;SDS011;19359;51.402;6.778;2024-02-26T00:03:59;0.60;;;0.47;;
7783;SDS011;19359;51.402;6.778;2024-02-26T00:06:27;0.95;;;0.55;;
7783;SDS011;19359;51.402;6.778;2024-02-26T00:08:54;0.40;;;0.40;;
7783;SDS011;19359;51.402;6.778;2024-02-26T00:11:20;1.45;;;0.45;;
7783;SDS011;19359;51.402;6.778;2024-02-26T00:13:47;1.17;;;0.40;;
7783;SDS011;19359;51.402;6.778;2024-02-26T00:16:14;0.40;;;0.40;;
7783;SDS011;19359;51.402;6.778;2024-02-26T00:18:42;0.60;;;0.60;;
7783;SDS011;19359;51.402;6.778;2024-02-26T00:21:09;0.80;;;0.40;;
7783;SDS011;19359;51.402;6.778;2024-02-26T00:23:35;0.40;;;0.40;;
7783;SDS011;19359;51.402;6.778;2024-02-26T00:26:02;0.30;;;0.30;;
7783;SDS011;19359;51.402;6.778;2024-02-26T00:28:29;0.63;;;0.40;;
7783;SDS011;19359;51.402;6.778;2024-02-26T00:30:56;0.40;;;0.40;;
7783;SDS011;19359;51.402;6.778;2024-02-26T00:33:22;0.38;;;0.30;;
7783;SDS011;19359;51.402;6.778;2024-02-26T00:35:50;0.40;;;0.30;;
7783;SDS011;19359;51.402;6.778;2024-02-26T00:38:17;0.73;;;0.73;;
7783;SDS011;19359;51.402;6.778;2024-02-26T00:40:44;0.35;;;0.30;;
7783;SDS011;19359;51.402;6.778;2024-02-26T00:43:11;0.50;;;0.50;;
7783;SDS011;19359;51.402;6.778;2024-02-26T00:45:37;0.50;;;0.50;;
7783;SDS011;19359;51.402;6.778;2024-02-26T00:48:04;0.88;;;0.60;;
7783;SDS011;19359;51.402;6.778;2024-02-26T00:50:32;0.98;;;0.40;;
7783;SDS011;19359;51.402;6.778;2024-02-26T00:53:01;0.28;;;0.17;;
7783;SDS011;19359;51.402;6.778;2024-02-26T00:55:27;0.50;;;0.50;;
7783;SDS011;19359;51.402;6.778;2024-02-26T00:57:54;0.55;;;0.55;;
7783;SDS011;19359;51.402;6.778;2024-02-26T01:00:21;0.63;;;0.40;;
7783;SDS011;19359;51.402;6.778;2024-02-26T01:02:48;0.45;;;0.30;;
7783;SDS011;19359;51.402;6.778;2024-02-26T01:05:15;0.30;;;0.30;;
7783;SDS011;19359;51.402;6.778;2024-02-26T01:07:42;0.63;;;0.30;;
7783;SDS011;19359;51.402;6.778;2024-02-26T01:10:11;0.30;;;0.30;;
7783;SDS011;19359;51.402;6.778;2024-02-26T01:12:37;0.45;;;0.30;;
7783;SDS011;19359;51.402;6.778;2024-02-26T01:15:04;0.40;;;0.40;;
7783;SDS011;19359;51.402;6.778;2024-02-26T01:17:32;0.52;;;0.52;;
7783;SDS011;19359;51.402;6.778;2024-02-26T01:19:58;0.52;;;0.52;;
7783;SDS011;19359;51.402;6.778;2024-02-26T01:22:25;0.30;;;0.30;;
7783;SDS011;19359;51.402;6.778;2024-02-26T01:24:52;0.60;;;0.60;;
7783;SDS011;19359;51.402;6.778;2024-02-26T01:27:20;1.10;;;0.30;;
7783;SDS011;19359;51.402;6.778;2024-02-26T01:29:51;0.40;;;0.40;;
7783;SDS011;19359;51.402;6.778;2024-02-26T01:32:18;1.75;;;0.32;;
7783;SDS011;19359;51.402;6.778;2024-02-26T01:34:45;0.32;;;0.32;;
7783;SDS011;19359;51.402;6.778;2024-02-26T01:37:12;0.40;;;0.40;;
7783;SDS011;19359;51.402;6.778;2024-02-26T01:39:38;0.40;;;0.40;;
7783;SDS011;19359;51.402;6.778;2024-02-26T01:42:06;0.28;;;0.28;;
7783;SDS011;19359;51.402;6.778;2024-02-26T01:44:34;1.08;;;0.40;;
7783;SDS011;19359;51.402;6.778;2024-02-26T01:47:03;1.17;;;0.57;;
7783;SDS011;19359;51.402;6.778;2024-02-26T01:49:31;0.30;;;0.30;;
7783;SDS011;19359;51.402;6.778;2024-02-26T01:51:58;0.30;;;0.30;;
7783;SDS011;19359;51.402;6.778;2024-02-26T01:54:25;0.60;;;0.47;;
7783;SDS011;19359;51.402;6.778;2024-02-26T01:56:52;2.35;;;0.30;;
7783;SDS011;19359;51.402;6.778;2024-02-26T01:59:18;0.30;;;0.25;;
7783;SDS011;19359;51.402;6.778;2024-02-26T02:01:48;0.32;;;0.32;;
7783;SDS011;19359;51.402;6.778;2024-02-26T02:04:20;0.20;;;0.20;;
7783;SDS011;19359;51.402;6.778;2024-02-26T02:06:49;0.20;;;0.20;;
7783;SDS011;19359;51.402;6.778;2024-02-26T02:09:16;0.65;;;0.20;;
7783;SDS011;19359;51.402;6.778;2024-02-26T02:11:44;0.20;;;0.20;;
7783;SDS011;19359;51.402;6.778;2024-02-26T02:14:11;0.82;;;0.20;;
7783;SDS011;19359;51.402;6.778;2024-02-26T02:16:38;0.40;;;0.20;;
7783;SDS011;19359;51.402;6.778;2024-02-26T02:19:06;0.65;;;0.40;;
7783;SDS011;19359;51.402;6.778;2024-02-26T02:21:34;0.30;;;0.30;;
7783;SDS011;19359;51.402;6.778;2024-02-26T02:24:01;0.30;;;0.30;;
7783;SDS011;19359;51.402;6.778;2024-02-26T02:26:27;2.30;;;0.28;;
7783;SDS011;19359;51.402;6.778;2024-02-26T02:28:54;0.75;;;0.30;;
7783;SDS011;19359;51.402;6.778;2024-02-26T02:31:21;0.28;;;0.20;;
7783;SDS011;19359;51.402;6.778;2024-02-26T02:33:48;2.75;;;0.50;;
7783;SDS011;19359;51.402;6.778;2024-02-26T02:36:15;1.33;;;0.20;;
7783;SDS011;19359;51.402;6.778;2024-02-26T02:38:49;0.40;;;0.40;;
7783;SDS011;19359;51.402;6.778;2024-02-26T02:41:17;0.20;;;0.20;;
7783;SDS011;19359;51.402;6.778;2024-02-26T02:43:44;0.93;;;0.40;;
7783;SDS011;19359;51.402;6.778;2024-02-26T02:46:11;1.15;;;0.50;;
7783;SDS011;19359;51.402;6.778;2024-02-26T02:48:37;3.20;;;0.40;;
7783;SDS011;19359;51.402;6.778;2024-02-26T02:51:04;0.25;;;0.25;;
7783;SDS011;19359;51.402;6.778;2024-02-26T02:53:31;0.70;;;0.40;;
7783;SDS011;19359;51.402;6.778;2024-02-26T02:55:59;0.30;;;0.30;;
7783;SDS011;19359;51.402;6.778;2024-02-26T02:58:26;15.52;;;0.75;;
7783;SDS011;19359;51.402;6.778;2024-02-26T03:00:53;1.15;;;0.40;;
7783;SDS011;19359;51.402;6.778;2024-02-26T03:03:20;0.63;;;0.47;;
7783;SDS011;19359;51.402;6.778;2024-02-26T03:05:49;0.40;;;0.40;;
7783;SDS011;19359;51.402;6.778;2024-02-26T03:08:15;0.30;;;0.30;;
7783;SDS011;19359;51.402;6.778;2024-02-26T03:10:44;0.98;;;0.40;;
7783;SDS011;19359;51.402;6.778;2024-02-26T03:13:12;1.60;;;0.30;;
7783;SDS011;19359;51.402;6.778;2024-02-26T03:15:39;0.43;;;0.40;;
7783;SDS011;19359;51.402;6.778;2024-02-26T03:18:05;2.38;;;0.60;;
7783;SDS011;19359;51.402;6.778;2024-02-26T03:20:32;0.40;;;0.40;;
7783;SDS011;19359;51.402;6.778;2024-02-26T03:22:59;0.47;;;0.47;;
7783;SDS011;19359;51.402;6.778;2024-02-26T03:25:26;0.45;;;0.40;;
7783;SDS011;19359;51.402;6.778;2024-02-26T03:27:52;0.50;;;0.50;;
7783;SDS011;19359;51.402;6.778;2024-02-26T03:30:20;0.60;;;0.60;;
7783;SDS011;19359;51.402;6.778;2024-02-26T03:32:47;1.70;;;0.75;;
7783;SDS011;19359;51.402;6.778;2024-02-26T03:35:14;0.50;;;0.50;;
7783;SDS011;19359;51.402;6.778;2024-02-26T03:37:41;0.60;;;0.60;;
7783;SDS011;19359;51.402;6.778;2024-02-26T03:40:08;1.50;;;0.90;;
7783;SDS011;19359;51.402;6.778;2024-02-26T03:42:35;1.13;;;0.60;;
7783;SDS011;19359;51.402;6.778;2024-02-26T03:45:02;1.45;;;0.57;;
7783;SDS011;19359;51.402;6.778;2024-02-26T03:47:30;1.60;;;0.60;;
7783;SDS011;19359;51.402;6.778;2024-02-26T03:49:57;1.85;;;0.95;;
7783;SDS011;19359;51.402;6.778;2024-02-26T03:52:24;1.05;;;0.95;;
7783;SDS011;19359;51.402;6.778;2024-02-26T03:54:51;1.05;;;0.73;;
7783;SDS011;19359;51.402;6.778;2024-02-26T03:57:17;5.15;;;0.55;;
7783;SDS011;19359;51.402;6.778;2024-02-26T03:59:44;0.60;;;0.60;;
7783;SDS011;19359;51.402;6.778;2024-02-26T04:02:11;0.43;;;0.43;;
7783;SDS011;19359;51.402;6.778;2024-02-26T04:04:39;2.15;;;0.57;;
7783;SDS011;19359;51.402;6.778;2024-02-26T04:07:06;0.60;;;0.60;;
7783;SDS011;19359;51.402;6.778;2024-02-26T04:09:32;0.65;;;0.60;;
7783;SDS011;19359;51.402;6.778;2024-02-26T04:12:00;1.95;;;0.63;;
7783;SDS011;19359;51.402;6.778;2024-02-26T04:14:27;0.60;;;0.60;;
7783;SDS011;19359;51.402;6.778;2024-02-26T04:16:54;0.63;;;0.63;;
7783;SDS011;19359;51.402;6.778;2024-02-26T04:19:21;0.70;;;0.70;;
7783;SDS011;19359;51.402;6.778;2024-02-26T04:21:49;0.80;;;0.70;;
7783;SDS011;19359;51.402;6.778;2024-02-26T04:24:15;0.40;;;0.40;;
7783;SDS011;19359;51.402;6.778;2024-02-26T04:26:42;3.22;;;0.80;;
7783;SDS011;19359;51.402;6.778;2024-02-26T04:29:09;1.10;;;0.70;;
7783;SDS011;19359;51.402;6.778;2024-02-26T04:31:36;0.68;;;0.68;;
7783;SDS011;19359;51.402;6.778;2024-02-26T04:34:04;0.70;;;0.70;;
7783;SDS011;19359;51.402;6.778;2024-02-26T04:36:31;1.15;;;1.10;;
7783;SDS011;19359;51.402;6.778;2024-02-26T04:38:59;1.33;;;0.63;;
7783;SDS011;19359;51.402;6.778;2024-02-26T04:41:26;1.05;;;0.73;;
7783;SDS011;19359;51.402;6.778;2024-02-26T04:43:52;0.52;;;0.52;;
7783;SDS011;19359;51.402;6.778;2024-02-26T04:46:19;1.75;;;0.63;;
7783;SDS011;19359;51.402;6.778;2024-02-26T04:48:46;1.13;;;0.63;;
7783;SDS011;19359;51.402;6.778;2024-02-26T04:51:13;0.63;;;0.60;;
7783;SDS011;19359;51.402;6.778;2024-02-26T04:53:40;0.30;;;0.30;;
7783;SDS011;19359;51.402;6.778;2024-02-26T04:56:08;0.40;;;0.40;;
7783;SDS011;19359;51.402;6.778;2024-02-26T04:58:35;0.57;;;0.57;;
7783;SDS011;19359;51.402;6.778;2024-02-26T05:01:02;0.65;;;0.65;;
7783;SDS011;19359;51.402;6.778;2024-02-26T05:03:29;1.58;;;0.55;;
7783;SDS011;19359;51.402;6.778;2024-02-26T05:05:55;0.50;;;0.50;;
7783;SDS011;19359;51.402;6.778;2024-02-26T05:08:23;0.50;;;0.50;;
7783;SDS011;19359;51.402;6.778;2024-02-26T05:10:50;0.75;;;0.60;;
7783;SDS011;19359;51.402;6.778;2024-02-26T05:13:18;0.75;;;0.75;;
7783;SDS011;19359;51.402;6.778;2024-02-26T05:15:44;0.55;;;0.55;;
7783;SDS011;19359;51.402;6.778;2024-02-26T05:18:14;0.50;;;0.50;;
7783;SDS011;19359;51.402;6.778;2024-02-26T05:20:41;1.70;;;0.50;;
7783;SDS011;19359;51.402;6.778;2024-02-26T05:23:07;0.65;;;0.65;;
7783;SDS011;19359;51.402;6.778;2024-02-26T05:25:35;0.50;;;0.50;;
7783;SDS011;19359;51.402;6.778;2024-02-26T05:28:02;1.20;;;0.75;;
7783;SDS011;19359;51.402;6.778;2024-02-26T05:30:30;1.08;;;1.08;;
7783;SDS011;19359;51.402;6.778;2024-02-26T05:32:57;0.70;;;0.70;;
7783;SDS011;19359;51.402;6.778;2024-02-26T05:35:24;0.73;;;0.73;;
7783;SDS011;19359;51.402;6.778;2024-02-26T05:37:51;2.50;;;0.77;;
7783;SDS011;19359;51.402;6.778;2024-02-26T05:40:19;0.55;;;0.55;;
7783;SDS011;19359;51.402;6.778;2024-02-26T05:42:45;0.60;;;0.60;;
7783;SDS011;19359;51.402;6.778;2024-02-26T05:45:14;0.75;;;0.75;;
7783;SDS011;19359;51.402;6.778;2024-02-26T05:47:42;0.63;;;0.63;;
7783;SDS011;19359;51.402;6.778;2024-02-26T05:50:09;1.00;;;1.00;;
7783;SDS011;19359;51.402;6.778;2024-02-26T05:52:36;1.38;;;0.80;;
7783;SDS011;19359;51.402;6.778;2024-02-26T05:55:04;2.15;;;0.63;;
7783;SDS011;19359;51.402;6.778;2024-02-26T05:57:31;1.08;;;0.98;;
7783;SDS011;19359;51.402;6.778;2024-02-26T05:59:58;1.02;;;0.93;;
7783;SDS011;19359;51.402;6.778;2024-02-26T06:02:28;0.90;;;0.90;;
7783;SDS011;19359;51.402;6.778;2024-02-26T06:04:56;1.48;;;0.77;;
7783;SDS011;19359;51.402;6.778;2024-02-26T06:07:22;0.85;;;0.80;;
7783;SDS011;19359;51.402;6.778;2024-02-26T06:09:49;0.50;;;0.50;;
7783;SDS011;19359;51.402;6.778;2024-02-26T06:12:16;1.00;;;1.00;;
7783;SDS011;19359;51.402;6.778;2024-02-26T06:14:43;1.08;;;0.85;;
7783;SDS011;19359;51.402;6.778;2024-02-26T06:17:09;1.05;;;1.00;;
7783;SDS011;19359;51.402;6.778;2024-02-26T06:19:36;0.60;;;0.60;;
7783;SDS011;19359;51.402;6.778;2024-02-26T06:22:04;0.60;;;0.60;;
7783;SDS011;19359;51.402;6.778;2024-02-26T06:24:31;1.13;;;0.90;;
7783;SDS011;19359;51.402;6.778;2024-02-26T06:26:58;1.05;;;0.93;;
7783;SDS011;19359;51.402;6.778;2024-02-26T06:29:25;0.52;;;0.52;;
7783;SDS011;19359;51.402;6.778;2024-02-26T06:31:52;0.80;;;0.80;;
7783;SDS011;19359;51.402;6.778;2024-02-26T06:34:18;1.35;;;0.65;;
7783;SDS011;19359;51.402;6.778;2024-02-26T06:36:45;0.85;;;0.85;;
7783;SDS011;19359;51.402;6.778;2024-02-26T06:39:13;1.95;;;0.73;;
7783;SDS011;19359;51.402;6.778;2024-02-26T06:41:41;1.35;;;0.82;;
7783;SDS011;19359;51.402;6.778;2024-02-26T06:44:07;0.90;;;0.90;;
7783;SDS011;19359;51.402;6.778;2024-02-26T06:46:34;1.33;;;1.23;;
7783;SDS011;19359;51.402;6.778;2024-02-26T06:49:01;1.55;;;0.90;;
7783;SDS011;19359;51.402;6.778;2024-02-26T06:51:28;1.05;;;0.80;;
7783;SDS011;19359;51.402;6.778;2024-02-26T06:53:54;1.08;;;1.05;;
7783;SDS011;19359;51.402;6.778;2024-02-26T06:56:22;2.08;;;1.23;;
7783;SDS011;19359;51.402;6.778;2024-02-26T06:58:48;1.33;;;1.30;;
7783;SDS011;19359;51.402;6.778;2024-02-26T07:01:15;0.90;;;0.90;;
7783;SDS011;19359;51.402;6.778;2024-02-26T07:03:42;1.95;;;0.52;;
7783;SDS011;19359;51.402;6.778;2024-02-26T07:06:08;0.85;;;0.85;;
7783;SDS011;19359;51.402;6.778;2024-02-26T07:08:36;0.77;;;0.77;;
7783;SDS011;19359;51.402;6.778;2024-02-26T07:11:02;1.63;;;1.25;;
7783;SDS011;19359;51.402;6.778;2024-02-26T07:13:34;2.13;;;1.15;;
7783;SDS011;19359;51.402;6.778;2024-02-26T07:16:01;0.85;;;0.85;;
7783;SDS011;19359;51.402;6.778;2024-02-26T07:18:28;0.95;;;0.95;;
7783;SDS011;19359;51.402;6.778;2024-02-26T07:20:55;2.45;;;1.42;;
7783;SDS011;19359;51.402;6.778;2024-02-26T07:23:21;0.65;;;0.65;;
7783;SDS011;19359;51.402;6.778;2024-02-26T07:25:47;0.93;;;0.93;;
7783;SDS011;19359;51.402;6.778;2024-02-26T07:28:17;0.60;;;0.60;;
7783;SDS011;19359;51.402;6.778;2024-02-26T07:30:46;0.93;;;0.93;;
7783;SDS011;19359;51.402;6.778;2024-02-26T07:33:13;0.90;;;0.90;;
7783;SDS011;19359;51.402;6.778;2024-02-26T07:35:40;0.70;;;0.70;;
7783;SDS011;19359;51.402;6.778;2024-02-26T07:38:06;1.52;;;0.85;;
7783;SDS011;19359;51.402;6.778;2024-02-26T07:40:33;0.90;;;0.90;;
7783;SDS011;19359;51.402;6.778;2024-02-26T07:43:01;1.25;;;1.15;;
7783;SDS011;19359;51.402;6.778;2024-02-26T07:45:28;0.70;;;0.70;;
7783;SDS011;19359;51.402;6.778;2024-02-26T07:47:56;0.90;;;0.90;;
7783;SDS011;19359;51.402;6.778;2024-02-26T07:50:22;1.58;;;0.80;;
7783;SDS011;19359;51.402;6.778;2024-02-26T07:52:49;2.90;;;0.93;;
7783;SDS011;19359;51.402;6.778;2024-02-26T07:55:16;0.93;;;0.93;;
7783;SDS011;19359;51.402;6.778;2024-02-26T07:57:44;0.98;;;0.98;;
7783;SDS011;19359;51.402;6.778;2024-02-26T08:00:11;3.03;;;0.85;;
7783;SDS011;19359;51.402;6.778;2024-02-26T08:02:41;3.17;;;0.80;;
7783;SDS011;19359;51.402;6.778;2024-02-26T08:05:09;0.88;;;0.88;;
7783;SDS011;19359;51.402;6.778;2024-02-26T08:07:36;0.73;;;0.73;;
7783;SDS011;19359;51.402;6.778;2024-02-26T08:10:03;1.15;;;1.00;;
7783;SDS011;19359;51.402;6.778;2024-02-26T08:12:30;1.20;;;1.20;;
7783;SDS011;19359;51.402;6.778;2024-02-26T08:14:57;0.90;;;0.90;;
7783;SDS011;19359;51.402;6.778;2024-02-26T08:17:24;1.17;;;1.00;;
7783;SDS011;19359;51.402;6.778;2024-02-26T08:19:52;2.65;;;1.08;;
7783;SDS011;19359;51.402;6.778;2024-02-26T08:22:20;1.25;;;1.25;;
7783;SDS011;19359;51.402;6.778;2024-02-26T08:24:46;1.27;;;1.17;;
7783;SDS011;19359;51.402;6.778;2024-02-26T08:27:13;1.42;;;1.23;;
7783;SDS011;19359;51.402;6.778;2024-02-26T08:29:40;1.00;;;0.90;;
7783;SDS011;19359;51.402;6.778;2024-02-26T08:32:07;1.95;;;0.93;;
7783;SDS011;19359;51.402;6.778;2024-02-26T08:34:33;1.60;;;1.00;;
7783;SDS011;19359;51.402;6.778;2024-02-26T08:37:00;1.42;;;1.33;;
7783;SDS011;19359;51.402;6.778;2024-02-26T08:39:28;1.55;;;1.42;;
7783;SDS011;19359;51.402;6.778;2024-02-26T08:41:55;0.60;;;0.60;;
7783;SDS011;19359;51.402;6.778;2024-02-26T08:44:21;1.15;;;1.15;;
7783;SDS011;19359;51.402;6.778;2024-02-26T08:46:48;2.92;;;1.25;;
7783;SDS011;19359;51.402;6.778;2024-02-26T08:49:15;1.23;;;1.23;;
7783;SDS011;19359;51.402;6.778;2024-02-26T08:51:42;2.33;;;1.05;;
7783;SDS011;19359;51.402;6.778;2024-02-26T08:54:08;4.22;;;1.23;;
7783;SDS011;19359;51.402;6.778;2024-02-26T08:56:36;1.13;;;0.82;;
7783;SDS011;19359;51.402;6.778;2024-02-26T08:59:03;4.95;;;1.13;;
7783;SDS011;19359;51.402;6.778;2024-02-26T09:01:30;1.00;;;1.00;;
7783;SDS011;19359;51.402;6.778;2024-02-26T09:03:57;0.80;;;0.80;;
7783;SDS011;19359;51.402;6.778;2024-02-26T09:06:24;0.82;;;0.82;;
7783;SDS011;19359;51.402;6.778;2024-02-26T09:08:51;1.02;;;1.00;;
7783;SDS011;19359;51.402;6.778;2024-02-26T09:11:18;0.85;;;0.85;;
7783;SDS011;19359;51.402;6.778;2024-02-26T09:13:46;0.93;;;0.75;;
7783;SDS011;19359;51.402;6.778;2024-02-26T09:16:13;1.13;;;0.80;;
7783;SDS011;19359;51.402;6.778;2024-02-26T09:18:39;0.80;;;0.80;;
7783;SDS011;19359;51.402;6.778;2024-02-26T09:21:06;1.10;;;1.00;;
7783;SDS011;19359;51.402;6.778;2024-02-26T09:23:33;1.33;;;1.00;;
7783;SDS011;19359;51.402;6.778;2024-02-26T09:26:00;1.42;;;1.42;;
7783;SDS011;19359;51.402;6.778;2024-02-26T09:28:27;1.17;;;1.17;;
7783;SDS011;19359;51.402;6.778;2024-02-26T09:30:57;1.42;;;1.10;;
7783;SDS011;19359;51.402;6.778;2024-02-26T09:33:24;1.83;;;1.20;;
7783;SDS011;19359;51.402;6.778;2024-02-26T09:35:51;1.38;;;1.27;;
7783;SDS011;19359;51.402;6.778;2024-02-26T09:38:18;1.30;;;1.20;;
7783;SDS011;19359;51.402;6.778;2024-02-26T09:40:44;0.95;;;0.95;;
7783;SDS011;19359;51.402;6.778;2024-02-26T09:43:13;1.45;;;1.35;;
7783;SDS011;19359;51.402;6.778;2024-02-26T09:45:41;1.40;;;1.23;;
7783;SDS011;19359;51.402;6.778;2024-02-26T09:48:10;1.02;;;1.02;;
7783;SDS011;19359;51.402;6.778;2024-02-26T09:50:38;1.85;;;1.23;;
7783;SDS011;19359;51.402;6.778;2024-02-26T09:53:07;1.08;;;1.08;;
7783;SDS011;19359;51.402;6.778;2024-02-26T09:55:36;1.10;;;1.10;;
7783;SDS011;19359;51.402;6.778;2024-02-26T09:58:03;1.20;;;1.20;;
7783;SDS011;19359;51.402;6.778;2024-02-26T10:00:32;1.88;;;1.58;;
7783;SDS011;19359;51.402;6.778;2024-02-26T10:03:04;2.15;;;1.73;;
7783;SDS011;19359;51.402;6.778;2024-02-26T10:05:33;1.20;;;1.20;;
7783;SDS011;19359;51.402;6.778;2024-02-26T10:08:01;2.25;;;1.80;;
7783;SDS011;19359;51.402;6.778;2024-02-26T10:10:29;1.13;;;1.13;;
7783;SDS011;19359;51.402;6.778;2024-02-26T10:12:56;2.17;;;1.17;;
7783;SDS011;19359;51.402;6.778;2024-02-26T10:15:24;2.13;;;1.90;;
7783;SDS011;19359;51.402;6.778;2024-02-26T10:17:50;1.33;;;1.33;;
7783;SDS011;19359;51.402;6.778;2024-02-26T10:20:17;2.53;;;1.77;;
7783;SDS011;19359;51.402;6.778;2024-02-26T10:22:48;1.30;;;1.30;;
7783;SDS011;19359;51.402;6.778;2024-02-26T10:25:15;1.73;;;1.63;;
7783;SDS011;19359;51.402;6.778;2024-02-26T10:27:42;1.20;;;1.17;;
7783;SDS011;19359;51.402;6.778;2024-02-26T10:30:18;3.08;;;2.00;;
7783;SDS011;19359;51.402;6.778;2024-02-26T10:32:46;1.75;;;1.63;;
7783;SDS011;19359;51.402;6.778;2024-02-26T10:35:13;1.75;;;1.70;;
7783;SDS011;19359;51.402;6.778;2024-02-26T10:37:40;2.35;;;1.35;;
7783;SDS011;19359;51.402;6.778;2024-02-26T10:40:11;1.50;;;1.50;;
7783;SDS011;19359;51.402;6.778;2024-02-26T10:42:38;2.08;;;1.65;;
7783;SDS011;19359;51.402;6.778;2024-02-26T10:45:05;2.13;;;1.23;;
7783;SDS011;19359;51.402;6.778;2024-02-26T10:47:34;4.07;;;1.50;;
7783;SDS011;19359;51.402;6.778;2024-02-26T10:50:01;1.17;;;1.17;;
7783;SDS011;19359;51.402;6.778;2024-02-26T10:52:29;2.08;;;1.95;;
7783;SDS011;19359;51.402;6.778;2024-02-26T10:55:00;2.08;;;1.90;;
7783;SDS011;19359;51.402;6.778;2024-02-26T10:57:31;2.63;;;2.42;;
7783;SDS011;19359;51.402;6.778;2024-02-26T10:59:59;2.65;;;2.15;;
7783;SDS011;19359;51.402;6.778;2024-02-26T11:02:29;2.67;;;2.38;;
7783;SDS011;19359;51.402;6.778;2024-02-26T11:04:57;1.83;;;1.65;;
7783;SDS011;19359;51.402;6.778;2024-02-26T11:07:24;2.50;;;2.00;;
7783;SDS011;19359;51.402;6.778;2024-02-26T11:09:52;2.08;;;1.98;;
7783;SDS011;19359;51.402;6.778;2024-02-26T11:12:21;1.77;;;1.67;;
7783;SDS011;19359;51.402;6.778;2024-02-26T11:14:50;5.88;;;2.15;;
7783;SDS011;19359;51.402;6.778;2024-02-26T11:17:20;2.35;;;1.83;;
7783;SDS011;19359;51.402;6.778;2024-02-26T11:19:48;2.08;;;1.83;;
7783;SDS011;19359;51.402;6.778;2024-02-26T11:22:16;3.00;;;2.22;;
7783;SDS011;19359;51.402;6.778;2024-02-26T11:24:43;2.67;;;2.28;;
7783;SDS011;19359;51.402;6.778;2024-02-26T11:27:10;1.80;;;1.70;;
7783;SDS011;19359;51.402;6.778;2024-02-26T11:29:39;2.17;;;1.98;;
7783;SDS011;19359;51.402;6.778;2024-02-26T11:32:11;1.80;;;1.67;;
7783;SDS011;19359;51.402;6.778;2024-02-26T11:34:38;3.15;;;1.60;;
7783;SDS011;19359;51.402;6.778;2024-02-26T11:37:08;8.05;;;2.45;;
7783;SDS011;19359;51.402;6.778;2024-02-26T11:39:36;2.95;;;1.67;;
7783;SDS011;19359;51.402;6.778;2024-02-26T11:42:07;2.25;;;2.08;;
7783;SDS011;19359;51.402;6.778;2024-02-26T11:44:36;2.05;;;1.85;;
7783;SDS011;19359;51.402;6.778;2024-02-26T11:47:10;1.75;;;1.75;;
7783;SDS011;19359;51.402;6.778;2024-02-26T11:49:38;3.17;;;2.45;;
7783;SDS011;19359;51.402;6.778;2024-02-26T11:52:06;1.92;;;1.85;;
7783;SDS011;19359;51.402;6.778;2024-02-26T11:57:20;2.38;;;2.17;;
7783;SDS011;19359;51.402;6.778;2024-02-26T11:59:47;2.25;;;2.15;;
7783;SDS011;19359;51.402;6.778;2024-02-26T12:05:10;2.80;;;1.88;;
7783;SDS011;19359;51.402;6.778;2024-02-26T12:07:45;3.17;;;2.30;;
7783;SDS011;19359;51.402;6.778;2024-02-26T12:10:14;2.53;;;2.42;;
7783;SDS011;19359;51.402;6.778;2024-02-26T12:12:42;2.60;;;2.33;;
7783;SDS011;19359;51.402;6.778;2024-02-26T12:15:09;2.33;;;2.10;;
7783;SDS011;19359;51.402;6.778;2024-02-26T12:17:37;2.97;;;2.45;;
7783;SDS011;19359;51.402;6.778;2024-02-26T12:20:09;2.63;;;2.28;;
7783;SDS011;19359;51.402;6.778;2024-02-26T12:22:36;2.65;;;1.80;;
7783;SDS011;19359;51.402;6.778;2024-02-26T12:25:05;2.70;;;2.10;;
7783;SDS011;19359;51.402;6.778;2024-02-26T12:27:34;4.63;;;3.00;;
7783;SDS011;19359;51.402;6.778;2024-02-26T12:30:01;2.00;;;1.85;;
7783;SDS011;19359;51.402;6.778;2024-02-26T12:32:29;2.60;;;2.03;;
7783;SDS011;19359;51.402;6.778;2024-02-26T12:34:56;3.47;;;2.53;;
7783;SDS011;19359;51.402;6.778;2024-02-26T12:37:24;4.95;;;2.45;;
7783;SDS011;19359;51.402;6.778;2024-02-26T12:39:51;4.32;;;3.00;;
7783;SDS011;19359;51.402;6.778;2024-02-26T12:42:18;1.33;;;1.25;;
7783;SDS011;19359;51.402;6.778;2024-02-26T12:44:45;2.65;;;2.38;;
7783;SDS011;19359;51.402;6.778;2024-02-26T12:47:12;5.95;;;2.85;;
7783;SDS011;19359;51.402;6.778;2024-02-26T12:49:42;2.90;;;2.60;;
7783;SDS011;19359;51.402;6.778;2024-02-26T12:52:09;4.03;;;2.35;;
7783;SDS011;19359;51.402;6.778;2024-02-26T12:54:37;3.78;;;2.95;;
7783;SDS011;19359;51.402;6.778;2024-02-26T12:57:05;2.95;;;1.88;;
7783;SDS011;19359;51.402;6.778;2024-02-26T12:59:34;3.35;;;2.95;;
7783;SDS011;19359;51.402;6.778;2024-02-26T13:02:02;2.85;;;2.60;;
7783;SDS011;19359;51.402;6.778;2024-02-26T13:04:30;2.42;;;2.22;;
7783;SDS011;19359;51.402;6.778;2024-02-26T13:06:57;3.28;;;3.00;;
7783;SDS011;19359;51.402;6.778;2024-02-26T13:09:27;2.85;;;2.45;;
7783;SDS011;19359;51.402;6.778;2024-02-26T13:11:55;1.80;;;1.70;;
7783;SDS011;19359;51.402;6.778;2024-02-26T13:14:22;1.38;;;1.27;;
7783;SDS011;19359;51.402;6.778;2024-02-26T13:16:54;2.80;;;1.95;;
7783;SDS011;19359;51.402;6.778;2024-02-26T13:19:21;1.33;;;1.33;;
7783;SDS011;19359;51.402;6.778;2024-02-26T13:21:48;2.80;;;2.55;;
7783;SDS011;19359;51.402;6.778;2024-02-26T13:24:15;3.38;;;2.40;;
7783;SDS011;19359;51.402;6.778;2024-02-26T13:26:43;4.95;;;3.38;;
7783;SDS011;19359;51.402;6.778;2024-02-26T13:29:17;3.22;;;2.65;;
7783;SDS011;19359;51.402;6.778;2024-02-26T13:31:44;5.97;;;2.42;;
7783;SDS011;19359;51.402;6.778;2024-02-26T13:34:11;2.03;;;1.90;;
7783;SDS011;19359;51.402;6.778;2024-02-26T13:36:48;2.97;;;2.50;;
7783;SDS011;19359;51.402;6.778;2024-02-26T13:39:21;2.53;;;2.33;;
7783;SDS011;19359;51.402;6.778;2024-02-26T13:41:48;1.83;;;1.73;;
7783;SDS011;19359;51.402;6.778;2024-02-26T13:44:15;3.00;;;2.33;;
7783;SDS011;19359;51.402;6.778;2024-02-26T13:46:43;2.33;;;1.77;;
7783;SDS011;19359;51.402;6.778;2024-02-26T13:49:10;2.55;;;1.90;;
7783;SDS011;19359;51.402;6.778;2024-02-26T13:51:37;1.83;;;1.52;;
7783;SDS011;19359;51.402;6.778;2024-02-26T13:54:03;3.30;;;2.38;;
7783;SDS011;19359;51.402;6.778;2024-02-26T13:56:30;1.67;;;1.55;;
7783;SDS011;19359;51.402;6.778;2024-02-26T13:58:57;2.25;;;1.50;;
7783;SDS011;19359;51.402;6.778;2024-02-26T14:01:25;2.55;;;2.35;;
7783;SDS011;19359;51.402;6.778;2024-02-26T14:03:53;2.03;;;1.90;;
7783;SDS011;19359;51.402;6.778;2024-02-26T14:06:22;2.05;;;1.77;;
7783;SDS011;19359;51.402;6.778;2024-02-26T14:08:49;1.38;;;1.27;;
7783;SDS011;19359;51.402;6.778;2024-02-26T14:11:15;2.92;;;2.03;;
7783;SDS011;19359;51.402;6.778;2024-02-26T14:13:42;1.73;;;1.63;;
7783;SDS011;19359;51.402;6.778;2024-02-26T14:16:11;1.75;;;1.58;;
7783;SDS011;19359;51.402;6.778;2024-02-26T14:18:38;1.33;;;0.98;;
7783;SDS011;19359;51.402;6.778;2024-02-26T14:21:07;0.95;;;0.93;;
7783;SDS011;19359;51.402;6.778;2024-02-26T14:23:34;1.20;;;1.15;;
7783;SDS011;19359;51.402;6.778;2024-02-26T14:26:00;0.88;;;0.88;;
7783;SDS011;19359;51.402;6.778;2024-02-26T14:28:28;3.03;;;1.67;;
7783;SDS011;19359;51.402;6.778;2024-02-26T14:30:57;2.65;;;1.30;;
7783;SDS011;19359;51.402;6.778;2024-02-26T14:33:23;1.52;;;1.42;;
7783;SDS011;19359;51.402;6.778;2024-02-26T14:35:50;1.27;;;1.27;;
7783;SDS011;19359;51.402;6.778;2024-02-26T14:38:18;1.23;;;1.23;;
7783;SDS011;19359;51.402;6.778;2024-02-26T14:40:45;3.72;;;2.13;;
7783;SDS011;19359;51.402;6.778;2024-02-26T14:43:11;1.45;;;1.35;;
7783;SDS011;19359;51.402;6.778;2024-02-26T14:45:38;1.75;;;1.20;;
7783;SDS011;19359;51.402;6.778;2024-02-26T14:48:05;1.77;;;1.30;;
7783;SDS011;19359;51.402;6.778;2024-02-26T14:50:33;1.58;;;1.48;;
7783;SDS011;19359;51.402;6.778;2024-02-26T14:53:00;7.15;;;1.92;;
7783;SDS011;19359;51.402;6.778;2024-02-26T14:55:28;1.83;;;1.48;;
7783;SDS011;19359;51.402;6.778;2024-02-26T14:57:55;2.05;;;0.73;;
7783;SDS011;19359;51.402;6.778;2024-02-26T15:00:22;5.57;;;0.93;;
7783;SDS011;19359;51.402;6.778;2024-02-26T15:02:49;1.45;;;1.35;;
7783;SDS011;19359;51.402;6.778;2024-02-26T15:05:16;1.52;;;1.23;;
7783;SDS011;19359;51.402;6.778;2024-02-26T15:07:44;1.17;;;1.02;;